Time;durP1;ratioP1;P1;durP2;ratioP2;P2;SDS_P1;SDS_P2;PMS_P1;PMS_P2;Temp;Humidity;BMP_temperature;BMP_pressure;BME280_temperature;BME280_humidity;BME280_pressure;Samples;Min_cycle;Max_cycle;Signal;HPM_P1;HPM_P2
2022/11/13 00:01:14;;;;;;;17.67;15.87;;;;;;;3.96;100.00;99211.03;5079734;28;20223;-73
2022/11/13 00:03:43;;;;;;;17.33;15.47;;;;;;;3.94;100.00;99205.00;5079817;28;20216;-73
2022/11/13 00:06:10;;;;;;;16.43;14.67;;;;;;;3.90;100.00;99198.13;5079601;28;20247;-71
2022/11/13 00:08:37;;;;;;;18.27;14.80;;;;;;;3.93;100.00;99198.06;5077818;28;20218;-72
2022/11/13 00:11:07;;;;;;;17.23;14.63;;;;;;;3.96;100.00;99191.88;5080275;28;20296;-72
2022/11/13 00:13:38;;;;;;;17.40;13.60;;;;;;;3.97;100.00;99194.44;5079580;28;20224;-71
2022/11/13 00:16:09;;;;;;;17.73;14.07;;;;;;;3.98;100.00;99188.31;5079566;28;20267;-71
2022/11/13 00:18:36;;;;;;;16.27;14.17;;;;;;;4.00;100.00;99189.16;5079630;28;20216;-71
2022/11/13 00:21:06;;;;;;;17.93;15.03;;;;;;;4.00;100.00;99183.91;5079366;28;20227;-71
2022/11/13 00:23:35;;;;;;;19.20;15.73;;;;;;;3.99;100.00;99187.44;5079478;28;20220;-72
2022/11/13 00:26:08;;;;;;;15.90;14.20;;;;;;;3.95;100.00;99179.69;5079113;28;20236;-72
2022/11/13 00:28:35;;;;;;;15.83;14.03;;;;;;;3.93;100.00;99177.13;5079327;28;20213;-71
2022/11/13 00:31:03;;;;;;;16.63;14.37;;;;;;;3.96;100.00;99176.16;5079175;28;20251;-72
2022/11/13 00:33:31;;;;;;;18.63;14.93;;;;;;;4.00;100.00;99178.69;5079144;28;20233;-71
2022/11/13 00:36:03;;;;;;;17.23;13.73;;;;;;;4.06;100.00;99178.53;5077336;28;20219;-73
2022/11/13 00:38:30;;;;;;;16.03;13.70;;;;;;;4.12;100.00;99161.78;5079286;28;20240;-71
2022/11/13 00:40:56;;;;;;;14.87;13.33;;;;;;;4.19;100.00;99168.56;5079136;28;20225;-72
2022/11/13 00:43:24;;;;;;;15.70;13.13;;;;;;;4.18;100.00;99159.88;5079046;28;20254;-71
2022/11/13 00:45:51;;;;;;;15.20;13.30;;;;;;;4.16;100.00;99152.97;5078941;28;20271;-71
2022/11/13 00:48:18;;;;;;;14.40;12.90;;;;;;;4.18;100.00;99157.25;5078996;28;20655;-72
2022/11/13 00:50:46;;;;;;;14.40;12.80;;;;;;;4.18;100.00;99157.25;5078839;28;20249;-72
2022/11/13 00:53:12;;;;;;;14.03;12.63;;;;;;;4.22;100.00;99153.63;5078864;28;20253;-71
2022/11/13 00:55:39;;;;;;;13.03;11.43;;;;;;;4.27;100.00;99150.91;5078640;28;20272;-72
2022/11/13 00:58:05;;;;;;;14.23;12.73;;;;;;;4.30;100.00;99146.47;5078842;28;20256;-71
2022/11/13 01:00:34;;;;;;;14.73;12.27;;;;;;;4.30;100.00;99136.00;5076977;28;20263;-71
2022/11/13 01:03:01;;;;;;;11.40;10.23;;;;;;;4.23;100.00;99139.66;5078812;28;20220;-71
2022/11/13 01:05:27;;;;;;;11.63;10.40;;;;;;;4.21;100.00;99141.47;5079268;28;20275;-71
2022/11/13 01:07:54;;;;;;;11.37;10.17;;;;;;;4.19;100.00;99140.66;5078613;28;20260;-71
2022/11/13 01:10:21;;;;;;;11.73;10.37;;;;;;;4.17;100.00;99138.97;5078601;28;20255;-71
2022/11/13 01:12:48;;;;;;;13.07;11.30;;;;;;;4.16;100.00;99137.28;5078602;28;20259;-71
2022/11/13 01:15:15;;;;;;;13.93;12.20;;;;;;;4.19;100.00;99134.56;5078482;28;20252;-71
2022/11/13 01:17:43;;;;;;;16.30;11.87;;;;;;;4.18;100.00;99143.31;5078422;28;20259;-71
2022/11/13 01:20:10;;;;;;;14.33;11.40;;;;;;;4.16;100.00;99138.09;5078302;28;20667;-72
2022/11/13 01:22:37;;;;;;;16.87;12.43;;;;;;;4.15;100.00;99138.19;5078314;28;20255;-72
2022/11/13 01:25:04;;;;;;;15.70;11.77;;;;;;;4.14;100.00;99134.69;5078364;28;20325;-72
2022/11/13 01:27:31;;;;;;;14.83;11.53;;;;;;;4.15;100.00;99123.31;5076604;28;20262;-72
2022/11/13 01:29:58;;;;;;;15.30;11.63;;;;;;;4.14;100.00;99126.84;5078115;28;20253;-71
2022/11/13 01:32:25;;;;;;;13.97;10.90;;;;;;;4.14;100.00;99123.34;5078202;28;20529;-71
2022/11/13 01:34:53;;;;;;;15.60;11.80;;;;;;;4.14;100.00;99123.34;5078067;28;20263;-71
2022/11/13 01:37:19;;;;;;;16.07;12.23;;;;;;;4.12;100.00;99119.94;5077942;28;20267;-70
2022/11/13 01:39:46;;;;;;;16.27;12.63;;;;;;;4.08;100.00;99106.09;5077956;28;20257;-71
2022/11/13 01:42:13;;;;;;;16.87;12.80;;;;;;;4.10;100.00;99112.13;5077886;28;20252;-71
2022/11/13 01:44:48;;;;;;;16.00;11.83;;;;;;;4.07;100.00;99099.16;5078082;28;20281;-71
2022/11/13 01:47:15;;;;;;;16.93;11.50;;;;;;;4.08;100.00;99100.84;5077861;28;20317;-72
2022/11/13 01:49:43;;;;;;;13.40;10.67;;;;;;;4.02;100.00;99101.03;5078016;28;20568;-71
2022/11/13 01:52:14;;;;;;;13.10;10.90;;;;;;;4.00;100.00;99086.28;5075995;28;20251;-71
2022/11/13 01:54:46;;;;;;;13.67;11.60;;;;;;;3.99;100.00;99093.28;5077518;28;20249;-72
2022/11/13 01:57:14;;;;;;;14.43;11.67;;;;;;;3.99;100.00;99088.06;5077683;28;20242;-72
2022/11/13 01:59:46;;;;;;;13.83;10.63;;;;;;;3.96;100.00;99088.13;5077453;28;20224;-70
2022/11/13 02:02:13;;;;;;;14.17;11.93;;;;;;;3.97;100.00;99089.00;5077569;28;20262;-71
2022/11/13 02:04:41;;;;;;;14.07;11.27;;;;;;;3.92;100.00;99089.09;5077578;28;20256;-70
2022/11/13 02:07:11;;;;;;;12.80;10.73;;;;;;;3.90;100.00;99085.66;5076631;28;20271;-70
2022/11/13 02:09:41;;;;;;;11.77;10.50;;;;;;;3.86;100.00;99080.56;5077400;28;20255;-70
2022/11/13 02:12:11;;;;;;;11.73;10.20;;;;;;;3.85;100.00;99079.72;5077798;28;20242;-72
2022/11/13 02:14:40;;;;;;;14.43;11.97;;;;;;;3.84;100.00;99075.38;5077333;28;20252;-70
2022/11/13 02:17:11;;;;;;;12.77;11.10;;;;;;;3.85;100.00;99068.41;5076463;28;20259;-71
2022/11/13 02:19:42;;;;;;;12.53;11.03;;;;;;;3.83;100.00;99064.94;5076775;28;20251;-71
2022/11/13 02:22:15;;;;;;;12.03;10.40;;;;;;;3.75;100.00;99064.31;5077201;28;20252;-71
2022/11/13 02:24:45;;;;;;;11.43;9.93;;;;;;;3.62;100.00;99058.56;5077520;28;20262;-71
2022/11/13 02:27:17;;;;;;;11.27;9.40;;;;;;;3.50;100.00;99058.91;5077349;28;20315;-71
2022/11/13 02:29:43;;;;;;;11.80;10.33;;;;;;;3.43;100.00;99049.50;5077595;28;20654;-70
2022/11/13 02:32:10;;;;;;;12.43;10.30;;;;;;;3.43;100.00;99049.50;5077525;28;20262;-71
2022/11/13 02:34:37;;;;;;;11.83;10.57;;;;;;;3.40;100.00;99046.97;5077472;28;20215;-71
2022/11/13 02:37:03;;;;;;;13.03;10.70;;;;;;;3.44;100.00;99050.38;5077413;28;20255;-71
2022/11/13 02:39:30;;;;;;;11.47;10.27;;;;;;;3.46;100.00;99049.44;5076977;28;20251;-70
2022/11/13 02:41:58;;;;;;;11.97;10.37;;;;;;;3.48;100.00;99044.16;5076900;28;20587;-70
2022/11/13 02:44:25;;;;;;;12.60;10.50;;;;;;;3.41;100.00;99045.19;5075109;28;20334;-71
2022/11/13 02:46:51;;;;;;;11.50;10.23;;;;;;;3.44;100.00;99043.41;5076772;28;20652;-71
2022/11/13 02:49:18;;;;;;;10.87;9.77;;;;;;;3.46;100.00;99040.72;5076814;28;20265;-71
2022/11/13 02:51:44;;;;;;;10.77;9.33;;;;;;;3.45;100.00;99039.88;5077058;28;20501;-70
2022/11/13 02:54:11;;;;;;;11.53;10.33;;;;;;;3.43;100.00;99044.25;5076887;28;20251;-71
2022/11/13 02:56:38;;;;;;;11.40;10.17;;;;;;;3.43;100.00;99044.25;5076653;28;20325;-71
2022/11/13 02:59:06;;;;;;;11.50;9.90;;;;;;;3.37;100.00;99039.19;5076737;28;20255;-72
2022/11/13 03:01:32;;;;;;;10.97;9.80;;;;;;;3.37;100.00;99036.59;5076672;28;20255;-71
2022/11/13 03:03:59;;;;;;;10.70;9.40;;;;;;;3.39;100.00;99033.94;5076710;28;20259;-71
2022/11/13 03:06:26;;;;;;;13.67;11.20;;;;;;;3.39;100.00;99037.44;5076691;28;20279;-70
2022/11/13 03:08:52;;;;;;;11.80;10.60;;;;;;;3.39;100.00;99031.34;5074912;28;20214;-71
2022/11/13 03:11:19;;;;;;;10.07;9.03;;;;;;;3.34;100.00;99034.06;5076665;28;20848;-70
2022/11/13 03:13:46;;;;;;;11.80;10.17;;;;;;;3.37;100.00;99023.53;5076657;28;20569;-70
2022/11/13 03:16:15;;;;;;;11.87;10.53;;;;;;;3.36;100.00;99032.25;5076647;28;20293;-70
2022/11/13 03:18:42;;;;;;;11.17;9.90;;;;;;;3.37;100.00;99022.69;5077618;28;20211;-71
2022/11/13 03:21:11;;;;;;;10.60;9.43;;;;;;;3.37;100.00;99031.38;5080745;28;20589;-71
2022/11/13 03:23:38;;;;;;;11.27;10.03;;;;;;;3.39;100.00;99020.88;5080664;28;20500;-71
2022/11/13 03:26:07;;;;;;;12.57;10.30;;;;;;;3.40;100.00;99031.31;5080510;28;20314;-71
2022/11/13 03:28:34;;;;;;;12.10;9.87;;;;;;;3.42;100.00;99024.25;5080684;28;20259;-71
2022/11/13 03:31:01;;;;;;;11.83;10.53;;;;;;;3.45;100.00;99024.19;5080515;28;20216;-70
2022/11/13 03:33:29;;;;;;;11.97;10.20;;;;;;;3.47;100.00;99022.38;5080465;28;20266;-70
2022/11/13 03:35:56;;;;;;;11.00;9.67;;;;;;;3.46;100.00;99015.47;5078610;28;20254;-70
2022/11/13 03:38:23;;;;;;;11.60;9.90;;;;;;;3.45;100.00;99018.09;5080506;28;20255;-70
2022/11/13 03:40:50;;;;;;;11.53;9.73;;;;;;;3.44;100.00;99024.22;5080255;28;20254;-70
2022/11/13 03:43:17;;;;;;;11.70;10.20;;;;;;;3.41;100.00;99014.72;5080096;28;20219;-70
2022/11/13 03:45:45;;;;;;;10.73;9.63;;;;;;;3.45;100.00;99026.81;5080136;28;20262;-70
2022/11/13 03:48:11;;;;;;;11.03;9.83;;;;;;;3.51;100.00;99021.41;5080133;28;20215;-70
2022/11/13 03:50:39;;;;;;;10.10;9.10;;;;;;;3.45;100.00;99020.72;5080115;28;20247;-70
2022/11/13 03:53:06;;;;;;;11.10;9.20;;;;;;;3.42;100.00;99021.66;5080485;28;20557;-70
2022/11/13 03:55:33;;;;;;;10.53;9.43;;;;;;;3.39;100.00;99013.91;5080101;28;20287;-70
2022/11/13 03:57:59;;;;;;;10.10;9.10;;;;;;;3.42;100.00;99005.97;5079960;28;20258;-71
2022/11/13 04:00:26;;;;;;;11.53;10.23;;;;;;;3.37;100.00;99007.84;5078258;28;20219;-70
2022/11/13 04:02:52;;;;;;;10.13;9.13;;;;;;;3.34;100.00;99013.16;5079864;28;20259;-71
2022/11/13 04:05:19;;;;;;;11.30;9.87;;;;;;;3.27;100.00;99009.00;5079800;28;20215;-70
2022/11/13 04:07:47;;;;;;;11.30;9.80;;;;;;;3.34;100.00;99015.78;5079986;28;20235;-71
2022/11/13 04:10:14;;;;;;;11.83;9.70;;;;;;;3.36;100.00;99006.13;5079855;28;20242;-71
2022/11/13 04:12:41;;;;;;;10.10;9.03;;;;;;;3.39;100.00;99006.06;5079843;28;20296;-71
2022/11/13 04:15:08;;;;;;;10.87;9.40;;;;;;;3.42;100.00;99007.75;5079715;28;20251;-70
2022/11/13 04:17:35;;;;;;;10.73;9.60;;;;;;;3.44;100.00;99004.19;5079671;28;20589;-71
2022/11/13 04:20:01;;;;;;;12.93;11.43;;;;;;;3.46;100.00;99002.38;5079621;28;20215;-71
2022/11/13 04:22:28;;;;;;;13.60;11.53;;;;;;;3.53;100.00;98997.84;5079489;28;20220;-71
2022/11/13 04:24:56;;;;;;;13.50;10.87;;;;;;;3.50;100.00;98993.59;5079720;28;20626;-70
2022/11/13 04:27:23;;;;;;;13.40;11.50;;;;;;;3.48;100.00;98989.28;5077807;28;20271;-71
2022/11/13 04:29:49;;;;;;;13.13;11.47;;;;;;;3.48;100.00;98995.34;5079332;28;20216;-71
2022/11/13 04:32:16;;;;;;;12.27;10.87;;;;;;;3.52;100.00;98991.78;5079023;28;20292;-71
2022/11/13 04:34:43;;;;;;;12.10;10.80;;;;;;;3.47;100.00;98988.41;5079369;28;20265;-70
2022/11/13 04:37:09;;;;;;;12.33;10.30;;;;;;;3.40;100.00;98984.25;5079485;28;20277;-70
2022/11/13 04:39:36;;;;;;;11.30;10.07;;;;;;;3.37;100.00;98986.94;5079476;28;20670;-71
2022/11/13 04:44:48;;;;;;;12.10;10.80;;;;;;;3.25;100.00;98971.59;5079216;28;20226;-70
2022/11/13 04:47:15;;;;;;;11.33;9.67;;;;;;;3.27;100.00;98969.81;5079014;28;20239;-70
2022/11/13 04:49:41;;;;;;;12.33;10.70;;;;;;;3.22;100.00;98971.69;5079083;28;20251;-70
2022/11/13 04:52:08;;;;;;;12.00;10.37;;;;;;;3.20;100.00;98978.72;5077148;28;20252;-70
2022/11/13 04:54:35;;;;;;;12.47;10.70;;;;;;;3.16;100.00;98976.22;5079105;28;20248;-71
2022/11/13 04:57:02;;;;;;;11.80;10.37;;;;;;;3.13;100.00;98971.09;5079073;28;21514;-70
2022/11/13 04:59:30;;;;;;;11.97;10.50;;;;;;;3.08;100.00;98973.84;5078941;28;20255;-71
2022/11/13 05:01:57;;;;;;;12.17;10.57;;;;;;;3.04;100.00;98961.75;5078883;28;20601;-71
2022/11/13 05:04:24;;;;;;;12.37;10.50;;;;;;;3.01;100.00;98956.59;5078970;28;20608;-71
2022/11/13 05:06:50;;;;;;;11.60;10.40;;;;;;;3.00;100.00;98954.88;5078777;28;20655;-71
2022/11/13 05:09:17;;;;;;;11.63;10.43;;;;;;;2.98;100.00;98967.13;5078608;28;20303;-71
2022/11/13 05:11:43;;;;;;;10.90;9.80;;;;;;;2.94;100.00;98959.41;5078668;28;20264;-71
2022/11/13 05:14:11;;;;;;;11.17;10.03;;;;;;;2.89;100.00;98962.13;5078537;28;20250;-70
2022/11/13 05:16:39;;;;;;;13.30;10.37;;;;;;;2.79;100.00;98955.44;5078432;28;20558;-70
2022/11/13 05:19:07;;;;;;;10.87;9.77;;;;;;;2.67;100.00;98957.50;5076694;28;20223;-70
2022/11/13 05:21:33;;;;;;;11.37;10.17;;;;;;;2.61;100.00;98950.69;5078394;28;20360;-70
2022/11/13 05:24:00;;;;;;;11.33;10.17;;;;;;;2.58;100.00;98949.91;5078471;28;20250;-70
2022/11/13 05:26:27;;;;;;;12.17;10.17;;;;;;;2.56;100.00;98956.91;5078421;28;20251;-70
2022/11/13 05:28:56;;;;;;;10.57;9.47;;;;;;;2.60;100.00;98942.88;5078158;28;20258;-70
2022/11/13 05:31:23;;;;;;;11.93;10.00;;;;;;;2.57;100.00;98946.41;5078166;28;20259;-70
2022/11/13 05:33:51;;;;;;;11.37;9.63;;;;;;;2.59;100.00;98942.03;5078116;28;20276;-70
2022/11/13 05:36:19;;;;;;;11.60;10.20;;;;;;;2.62;100.00;98947.16;5078147;28;20251;-70
2022/11/13 05:38:45;;;;;;;12.33;10.50;;;;;;;2.65;100.00;98936.66;5078222;28;20247;-71
2022/11/13 05:41:15;;;;;;;12.23;10.57;;;;;;;2.68;100.00;98947.00;5078094;28;20291;-71
2022/11/13 05:43:43;;;;;;;12.37;10.70;;;;;;;2.64;100.00;98945.38;5076077;28;20251;-71
2022/11/13 05:46:12;;;;;;;11.53;10.33;;;;;;;2.60;100.00;98943.75;5078008;28;20251;-71
2022/11/13 05:48:40;;;;;;;14.20;11.10;;;;;;;2.58;100.00;98939.47;5077820;28;20385;-71
2022/11/13 05:51:09;;;;;;;11.23;10.03;;;;;;;2.60;100.00;98932.44;5078036;28;20677;-70
2022/11/13 05:53:37;;;;;;;10.87;9.77;;;;;;;2.57;100.00;98938.59;5077864;28;20634;-70
2022/11/13 05:56:05;;;;;;;11.97;10.63;;;;;;;2.59;100.00;98935.94;5077911;28;20274;-71
2022/11/13 05:58:33;;;;;;;11.17;10.03;;;;;;;2.61;100.00;98936.75;5077701;28;20247;-71
2022/11/13 06:01:08;;;;;;;14.30;10.60;;;;;;;2.60;100.00;98941.16;5077864;28;20246;-70
2022/11/13 06:03:35;;;;;;;11.17;9.70;;;;;;;2.57;100.00;98943.81;5077742;28;20226;-71
2022/11/13 06:06:02;;;;;;;11.53;9.63;;;;;;;2.55;100.00;98940.41;5077587;28;20223;-71
2022/11/13 06:08:30;;;;;;;12.43;9.47;;;;;;;2.55;100.00;98940.41;5077488;28;20600;-71
2022/11/13 06:10:59;;;;;;;11.47;10.00;;;;;;;2.56;100.00;98936.88;5076052;28;20255;-70
2022/11/13 06:13:26;;;;;;;12.30;9.80;;;;;;;2.60;100.00;98937.66;5077432;28;20688;-71
2022/11/13 06:15:53;;;;;;;11.93;10.07;;;;;;;2.56;100.00;98936.88;5077440;28;20255;-71
2022/11/13 06:18:22;;;;;;;12.73;9.60;;;;;;;2.60;100.00;98937.66;5077527;28;20577;-71
2022/11/13 06:20:48;;;;;;;9.77;8.70;;;;;;;2.67;100.00;98936.59;5077459;28;20251;-71
2022/11/13 06:23:15;;;;;;;10.57;9.47;;;;;;;2.72;100.00;98938.22;5077373;28;20219;-71
2022/11/13 06:25:43;;;;;;;12.60;10.17;;;;;;;2.76;100.00;98929.41;5077281;28;20289;-71
2022/11/13 06:28:10;;;;;;;10.90;9.70;;;;;;;2.81;100.00;98926.69;5077099;28;20301;-71
2022/11/13 06:30:36;;;;;;;10.73;8.73;;;;;;;2.84;100.00;98927.47;5077184;28;20266;-71
2022/11/13 06:33:03;;;;;;;9.57;8.57;;;;;;;2.86;100.00;98924.78;5077094;28;20219;-70
2022/11/13 06:35:30;;;;;;;11.63;9.57;;;;;;;2.86;100.00;98923.06;5075451;28;20250;-71
2022/11/13 06:37:57;;;;;;;11.50;9.67;;;;;;;2.91;100.00;98929.03;5077026;28;20258;-71
2022/11/13 06:40:24;;;;;;;10.00;8.93;;;;;;;2.94;100.00;98922.88;5077104;28;20258;-70
2022/11/13 06:42:52;;;;;;;10.03;9.03;;;;;;;2.98;100.00;98917.50;5077181;28;20259;-71
2022/11/13 06:45:19;;;;;;;10.40;9.30;;;;;;;3.01;100.00;98913.97;5076899;28;20257;-70
2022/11/13 06:47:45;;;;;;;10.13;9.13;;;;;;;3.02;100.00;98911.31;5076808;28;20271;-71
2022/11/13 06:50:12;;;;;;;10.97;9.57;;;;;;;2.99;100.00;98911.38;5076970;28;20606;-71
2022/11/13 06:52:39;;;;;;;10.23;9.23;;;;;;;3.02;100.00;98900.88;5076826;28;20255;-71
2022/11/13 06:55:06;;;;;;;11.93;9.40;;;;;;;3.06;100.00;98906.88;5076409;28;20235;-71
2022/11/13 06:57:33;;;;;;;9.47;8.47;;;;;;;3.06;100.00;98899.03;5076799;28;20255;-71
2022/11/13 07:00:01;;;;;;;9.07;8.17;;;;;;;3.08;100.00;98899.84;5076748;28;20254;-71
2022/11/13 07:02:27;;;;;;;10.33;8.93;;;;;;;3.09;100.00;98897.19;5075144;28;20273;-71
2022/11/13 07:04:54;;;;;;;10.30;9.20;;;;;;;3.12;100.00;98886.66;5076670;28;20349;-71
2022/11/13 07:07:21;;;;;;;10.63;9.30;;;;;;;3.14;100.00;98892.72;5076607;28;20270;-71
2022/11/13 07:09:47;;;;;;;10.93;9.50;;;;;;;3.15;100.00;98896.16;5076565;28;20255;-71
2022/11/13 07:12:14;;;;;;;10.20;9.20;;;;;;;3.19;100.00;98897.78;5076616;28;20223;-71
2022/11/13 07:14:40;;;;;;;10.33;9.13;;;;;;;3.21;100.00;98895.97;5076805;28;20251;-70
2022/11/13 07:17:08;;;;;;;9.67;8.67;;;;;;;3.20;100.00;98895.16;5076743;28;20247;-71
2022/11/13 07:19:35;;;;;;;10.07;9.07;;;;;;;3.21;100.00;98885.53;5076620;28;20257;-72
2022/11/13 07:22:02;;;;;;;11.20;9.60;;;;;;;3.17;100.00;98890.00;5076969;28;20255;-71
2022/11/13 07:24:28;;;;;;;10.70;8.87;;;;;;;3.23;100.00;98889.81;5076702;28;20703;-69
2022/11/13 07:26:55;;;;;;;10.17;9.03;;;;;;;3.26;100.00;98884.53;5074721;28;20570;-70
2022/11/13 07:29:22;;;;;;;10.60;9.30;;;;;;;3.32;100.00;98886.97;5076675;28;20285;-71
2022/11/13 07:31:49;;;;;;;9.67;8.67;;;;;;;3.32;100.00;98889.56;5076539;28;20257;-72
2022/11/13 07:34:16;;;;;;;10.13;8.43;;;;;;;3.34;100.00;98881.66;5076505;28;20220;-71
2022/11/13 07:36:43;;;;;;;11.33;8.77;;;;;;;3.20;100.00;98884.69;5076357;28;20251;-71
2022/11/13 07:39:10;;;;;;;9.23;8.33;;;;;;;3.13;100.00;98877.91;5076459;28;20215;-71
2022/11/13 07:41:36;;;;;;;9.37;8.37;;;;;;;3.06;100.00;98876.38;5076532;28;20258;-70
2022/11/13 07:44:03;;;;;;;9.83;8.00;;;;;;;2.95;100.00;98867.97;5076405;28;20219;-71
2022/11/13 07:46:30;;;;;;;10.03;8.97;;;;;;;2.98;100.00;98856.59;5076542;28;20219;-71
2022/11/13 07:48:56;;;;;;;10.80;8.20;;;;;;;3.10;100.00;98861.47;5076322;28;20274;-71
2022/11/13 07:51:24;;;;;;;10.23;9.13;;;;;;;3.26;100.00;98858.41;5076693;28;20262;-70
2022/11/13 07:53:51;;;;;;;11.43;9.90;;;;;;;3.38;100.00;98846.72;5074690;28;20250;-71
2022/11/13 07:56:18;;;;;;;10.37;8.87;;;;;;;3.48;100.00;98854.25;5076396;28;20247;-71
2022/11/13 07:58:44;;;;;;;10.33;9.17;;;;;;;3.57;100.00;98842.66;5076256;28;20216;-72
2022/11/13 08:01:11;;;;;;;10.27;9.17;;;;;;;3.62;100.00;98841.59;5076284;28;20224;-71
2022/11/13 08:03:38;;;;;;;10.30;9.03;;;;;;;3.67;100.00;98841.50;5076246;28;20258;-71
2022/11/13 08:06:06;;;;;;;10.57;9.47;;;;;;;3.74;100.00;98837.78;5077706;28;20221;-70
2022/11/13 08:08:35;;;;;;;11.73;10.13;;;;;;;3.74;100.00;98838.63;5079825;28;20323;-71
2022/11/13 08:11:05;;;;;;;10.80;9.40;;;;;;;3.78;100.00;98837.63;5079947;28;20231;-71
2022/11/13 08:13:33;;;;;;;10.53;8.97;;;;;;;3.85;100.00;98838.31;5079834;28;20220;-72
2022/11/13 08:16:00;;;;;;;12.00;10.07;;;;;;;3.91;100.00;98840.72;5079985;28;20221;-71
2022/11/13 08:18:27;;;;;;;10.70;9.10;;;;;;;4.01;100.00;98844.75;5078151;28;20215;-71
2022/11/13 08:20:54;;;;;;;10.57;9.47;;;;;;;4.14;100.00;98836.47;5079946;28;20223;-71
2022/11/13 08:23:21;;;;;;;11.40;9.23;;;;;;;4.16;100.00;98829.41;5079631;28;20248;-71
2022/11/13 08:25:49;;;;;;;10.47;9.37;;;;;;;4.19;100.00;98824.09;5079502;28;20295;-71
2022/11/13 08:28:15;;;;;;;10.63;9.27;;;;;;;4.26;100.00;98824.72;5079395;28;20635;-70
2022/11/13 08:30:44;;;;;;;10.40;8.97;;;;;;;4.31;100.00;98821.06;5079639;28;20256;-71
2022/11/13 08:33:11;;;;;;;10.77;9.00;;;;;;;4.34;100.00;98818.34;5078119;28;20251;-70
2022/11/13 08:35:37;;;;;;;9.67;8.60;;;;;;;4.37;100.00;98827.84;5076863;28;20252;-70
2022/11/13 08:38:05;;;;;;;13.03;9.40;;;;;;;4.41;100.00;98809.38;5078487;28;20267;-70
2022/11/13 08:40:32;;;;;;;10.50;9.20;;;;;;;4.41;100.00;98809.38;5078279;28;20586;-70
2022/11/13 08:43:01;;;;;;;10.60;9.00;;;;;;;4.30;100.00;98806.28;5076374;28;20298;-71
2022/11/13 08:45:28;;;;;;;11.67;9.10;;;;;;;4.30;100.00;98801.06;5075611;28;20255;-69
2022/11/13 08:47:59;;;;;;;10.87;9.10;;;;;;;4.38;100.00;98796.41;5078549;28;20387;-67
2022/11/13 08:50:26;;;;;;;11.57;9.97;;;;;;;4.48;100.00;98797.81;5077357;28;20253;-69
2022/11/13 08:52:54;;;;;;;11.13;9.23;;;;;;;4.61;100.00;98806.94;5077978;28;20260;-68
2022/11/13 08:55:20;;;;;;;12.40;9.10;;;;;;;4.69;100.00;98807.53;5077818;28;20357;-69
2022/11/13 08:57:47;;;;;;;11.43;9.43;;;;;;;4.73;100.00;98800.41;5077447;28;20242;-69
2022/11/13 09:00:16;;;;;;;11.47;9.03;;;;;;;4.73;100.00;98795.16;5077916;28;20260;-69
2022/11/13 09:02:43;;;;;;;12.10;9.47;;;;;;;4.82;100.00;98800.09;5077773;28;20256;-70
2022/11/13 09:05:10;;;;;;;11.57;9.10;;;;;;;4.99;100.00;98788.09;5076794;28;20258;-69
2022/11/13 09:07:37;;;;;;;12.80;9.53;;;;;;;5.12;100.00;98788.50;5077735;28;20651;-71
2022/11/13 09:10:04;;;;;;;10.57;9.00;;;;;;;4.99;100.00;98787.22;5075802;28;20252;-70
2022/11/13 09:12:31;;;;;;;11.03;9.57;;;;;;;4.93;100.00;98790.94;5077194;28;20256;-71
2022/11/13 09:14:57;;;;;;;10.53;9.10;;;;;;;5.02;100.00;98793.19;5077312;28;20280;-71
2022/11/13 09:17:25;;;;;;;10.07;8.97;;;;;;;5.12;100.00;98783.25;5077470;28;20224;-71
2022/11/13 09:19:52;;;;;;;10.10;8.93;;;;;;;5.10;100.00;98780.69;5076880;28;20249;-70
2022/11/13 09:22:18;;;;;;;11.23;8.90;;;;;;;5.07;100.00;98780.78;5077711;28;20245;-71
2022/11/13 09:24:45;;;;;;;10.77;9.17;;;;;;;5.18;100.00;98785.63;5077480;28;20263;-71
2022/11/13 09:27:12;;;;;;;12.43;9.13;;;;;;;5.23;100.00;98792.41;5076684;28;20257;-71
2022/11/13 09:29:38;;;;;;;11.70;8.87;;;;;;;5.14;100.00;98790.13;5077481;28;20300;-70
2022/11/13 09:32:05;;;;;;;11.17;9.23;;;;;;;5.09;100.00;98784.22;5077638;28;20571;-72
2022/11/13 09:34:33;;;;;;;11.67;9.43;;;;;;;5.22;100.00;98776.75;5076389;28;20257;-70
2022/11/13 09:37:00;;;;;;;12.07;9.23;;;;;;;5.31;100.00;98769.38;5075879;28;20277;-70
2022/11/13 09:39:27;;;;;;;9.83;8.33;;;;;;;5.12;100.00;98768.38;5077194;28;20417;-69
2022/11/13 09:41:56;;;;;;;11.23;9.37;;;;;;;5.02;100.00;98761.75;5076328;28;20506;-69
2022/11/13 09:44:30;;;;;;;10.40;8.23;;;;;;;5.03;100.00;98766.13;5075786;28;20553;-70
2022/11/13 09:47:08;;;;;;;12.70;9.50;;;;;;;5.12;100.00;98778.03;5076420;28;20247;-69
2022/11/13 09:49:41;;;;;;;11.50;9.23;;;;;;;5.17;100.00;98771.69;5077252;28;20709;-71
2022/11/13 09:52:14;;;;;;;12.43;9.43;;;;;;;5.02;100.00;98764.38;5078035;28;20263;-70
2022/11/13 09:54:41;;;;;;;11.57;9.37;;;;;;;5.03;100.00;98753.03;5077608;28;20295;-72
2022/11/13 09:57:21;;;;;;;11.27;9.10;;;;;;;5.17;100.00;98750.72;5077672;28;20251;-71
2022/11/13 09:59:52;;;;;;;10.77;9.03;;;;;;;5.26;100.00;98765.25;5077821;28;20248;-73
2022/11/13 10:02:25;;;;;;;11.30;9.20;;;;;;;5.29;100.00;98749.38;5076033;28;20256;-70
2022/11/13 10:05:02;;;;;;;10.53;9.20;;;;;;;5.32;100.00;98750.13;5077627;28;20639;-71
2022/11/13 10:07:36;;;;;;;11.10;9.27;;;;;;;5.37;100.00;98744.72;5077452;28;20242;-71
2022/11/13 10:10:32;;;;;;;10.80;9.50;;;;;;;5.37;100.00;98749.97;5077455;28;20214;-70
2022/11/13 10:13:00;;;;;;;10.53;8.97;;;;;;;5.42;100.00;98761.97;5077417;28;20253;-71
2022/11/13 10:15:28;;;;;;;11.30;9.33;;;;;;;5.37;100.00;98753.44;5077448;28;20349;-70
2022/11/13 10:17:59;;;;;;;12.33;10.13;;;;;;;5.27;100.00;98752.09;5077579;28;20536;-71
2022/11/13 10:20:33;;;;;;;10.43;9.23;;;;;;;5.14;100.00;98761.31;5077314;28;20255;-72
2022/11/13 10:23:08;;;;;;;12.60;10.03;;;;;;;5.09;100.00;98763.28;5077248;28;20365;-71
2022/11/13 10:25:37;;;;;;;11.07;9.10;;;;;;;5.09;100.00;98752.78;5077290;28;20540;-71
2022/11/13 10:28:14;;;;;;;10.70;9.33;;;;;;;5.10;100.00;98738.78;5075022;28;20322;-71
2022/11/13 10:30:41;;;;;;;10.90;9.80;;;;;;;5.15;100.00;98746.44;5077061;28;20245;-71
2022/11/13 10:33:09;;;;;;;14.10;10.57;;;;;;;5.17;100.00;98740.25;5077002;28;20252;-71
2022/11/13 10:35:51;;;;;;;12.20;10.60;;;;;;;5.22;100.00;98734.81;5076984;28;20264;-70
2022/11/13 10:38:24;;;;;;;12.70;10.10;;;;;;;5.32;100.00;98729.16;5077003;28;20264;-70
2022/11/13 10:40:51;;;;;;;14.47;11.30;;;;;;;5.31;100.00;98737.94;5078287;28;20676;-70
2022/11/13 10:43:20;;;;;;;11.50;10.20;;;;;;;5.34;100.00;98729.97;5077847;28;20272;-69
2022/11/13 10:45:55;;;;;;;14.30;11.60;;;;;;;5.40;100.00;98716.63;5077515;28;20592;-70
2022/11/13 10:48:25;;;;;;;14.70;12.13;;;;;;;5.51;100.00;98732.75;5077154;28;20532;-70
2022/11/13 10:51:01;;;;;;;13.90;11.63;;;;;;;5.58;100.00;98715.91;5077006;28;20214;-71
2022/11/13 10:53:37;;;;;;;12.70;10.47;;;;;;;5.72;100.00;98718.81;5075459;28;20258;-71
2022/11/13 10:56:14;;;;;;;12.43;10.40;;;;;;;5.78;100.00;98702.81;5077141;28;20395;-70
2022/11/13 10:58:42;;;;;;;12.80;10.03;;;;;;;5.75;100.00;98708.19;5077035;28;20264;-71
2022/11/13 11:01:16;;;;;;;13.53;10.80;;;;;;;5.81;100.00;98692.22;5076910;28;20257;-71
2022/11/13 11:03:49;;;;;;;12.57;10.37;;;;;;;5.92;100.00;98694.44;5076692;28;20256;-71
2022/11/13 11:06:17;;;;;;;12.83;10.00;;;;;;;5.92;100.00;98682.13;5076836;28;20254;-72
2022/11/13 11:08:43;;;;;;;11.27;9.97;;;;;;;6.03;100.00;98682.53;5076903;28;20278;-71
2022/11/13 11:14:09;;;;;;;12.40;9.97;;;;;;;6.00;100.00;98655.59;5076867;28;20288;-71
2022/11/13 11:16:37;;;;;;;12.40;10.03;;;;;;;6.11;100.00;98645.50;5076744;28;20264;-72
2022/11/13 11:19:10;;;;;;;11.13;9.40;;;;;;;6.16;100.00;98640.91;5076397;28;20275;-71
2022/11/13 11:21:40;;;;;;;11.80;10.13;;;;;;;6.30;100.00;98631.47;5076226;28;20262;-72
2022/11/13 11:24:11;;;;;;;11.80;9.87;;;;;;;6.37;100.00;98614.56;5076684;28;20590;-72
2022/11/13 11:26:42;;;;;;;11.80;9.97;;;;;;;6.51;100.00;98617.41;5076623;28;20222;-71
2022/11/13 11:29:18;;;;;;;12.40;10.27;;;;;;;6.57;100.00;98611.88;5076424;28;20245;-71
2022/11/13 11:31:51;;;;;;;11.67;9.50;;;;;;;6.71;100.00;98606.84;5076486;28;20256;-70